Time;durP1;ratioP1;P1;durP2;ratioP2;P2;SDS_P1;SDS_P2;PMS_P1;PMS_P2;Temp;Humidity;BMP_temperature;BMP_pressure;BME280_temperature;BME280_humidity;BME280_pressure;Samples;Min_cycle;Max_cycle;Signal;HPM_P1;HPM_P2
2023/05/30 00:02:25;;;;;;;5.47;2.10;;;;;;;12.84;45.76;101626.31;7400501;19;20026;-67
2023/05/30 00:04:55;;;;;;;7.05;2.17;;;;;;;12.84;45.87;101633.34;7397826;19;20073;-67
2023/05/30 00:07:23;;;;;;;7.25;1.88;;;;;;;12.80;46.05;101627.28;7397891;19;20026;-67
2023/05/30 00:09:54;;;;;;;6.78;2.22;;;;;;;12.77;46.35;101618.53;7398488;19;20078;-72
2023/05/30 00:12:23;;;;;;;7.38;2.50;;;;;;;12.75;46.58;101623.84;7398244;19;20022;-68
2023/05/30 00:14:51;;;;;;;5.43;2.13;;;;;;;12.72;46.50;101618.63;7397634;19;20037;-67
2023/05/30 00:17:20;;;;;;;11.52;2.13;;;;;;;12.68;46.74;101632.72;7402312;19;20014;-68
2023/05/30 00:19:48;;;;;;;5.03;2.00;;;;;;;12.62;47.01;101622.28;7399587;19;20492;-69
2023/05/30 00:22:18;;;;;;;6.20;2.15;;;;;;;12.60;47.29;101627.59;7397545;19;20026;-68
2023/05/30 00:24:49;;;;;;;6.38;2.03;;;;;;;12.56;47.27;101628.50;7397380;19;20035;-67
2023/05/30 00:27:20;;;;;;;4.90;2.10;;;;;;;12.53;47.48;101633.84;7397040;19;20489;-67
2023/05/30 00:29:48;;;;;;;7.63;3.25;;;;;;;12.50;47.53;101636.53;7400104;19;20093;-68
2023/05/30 00:32:17;;;;;;;7.68;3.80;;;;;;;12.45;47.74;101633.97;7397830;19;20028;-68
2023/05/30 00:34:45;;;;;;;5.80;2.65;;;;;;;12.41;48.02;101640.16;7397334;19;20082;-68
2023/05/30 00:37:14;;;;;;;6.25;2.72;;;;;;;12.39;48.10;101639.31;7396646;19;20086;-68
2023/05/30 00:39:42;;;;;;;8.82;2.70;;;;;;;12.36;48.22;101640.22;7399238;19;20085;-68
2023/05/30 00:42:11;;;;;;;9.00;3.10;;;;;;;12.33;48.29;101639.41;7398992;19;20090;-68
2023/05/30 00:44:42;;;;;;;6.85;2.67;;;;;;;12.29;48.67;101648.25;7396720;19;20090;-68
2023/05/30 00:47:12;;;;;;;4.40;2.17;;;;;;;12.25;48.73;101644.78;7396594;19;20078;-68
2023/05/30 00:49:41;;;;;;;6.45;2.58;;;;;;;12.20;48.80;101650.09;7399434;19;20022;-68
2023/05/30 00:52:11;;;;;;;4.32;2.20;;;;;;;12.14;49.09;101642.28;7398574;19;20078;-68
2023/05/30 00:54:41;;;;;;;4.75;2.40;;;;;;;12.09;49.42;101649.38;7396808;19;20014;-68
2023/05/30 00:57:10;;;;;;;5.10;2.67;;;;;;;12.03;49.69;101650.34;7399073;19;20066;-68
2023/05/30 00:59:42;;;;;;;4.82;2.10;;;;;;;11.98;49.84;101648.66;7398607;19;20081;-68
2023/05/30 01:02:10;;;;;;;7.05;2.22;;;;;;;11.95;49.88;101653.94;7398325;19;20081;-68
2023/05/30 01:04:40;;;;;;;4.43;2.33;;;;;;;11.89;50.20;101653.13;7396333;19;20023;-68
2023/05/30 01:07:10;;;;;;;9.38;2.30;;;;;;;11.86;50.42;101657.53;7398025;19;20032;-68
2023/05/30 01:09:39;;;;;;;5.47;2.13;;;;;;;11.81;50.45;101662.84;7398295;19;20019;-66
2023/05/30 01:12:17;;;;;;;4.15;2.28;;;;;;;11.74;50.67;101664.69;7398274;19;20090;-67
2023/05/30 01:14:56;;;;;;;6.97;2.33;;;;;;;11.68;50.74;101664.75;7395924;19;20388;-68
2023/05/30 01:17:33;;;;;;;5.50;2.10;;;;;;;11.64;50.99;101659.53;7398269;19;20078;-68
2023/05/30 01:20:09;;;;;;;5.63;2.53;;;;;;;11.63;51.06;101661.31;7398022;19;20085;-67
2023/05/30 01:22:52;;;;;;;7.40;2.72;;;;;;;11.61;51.08;101670.97;7397343;19;20430;-67
2023/05/30 01:25:29;;;;;;;8.18;2.20;;;;;;;11.57;51.24;101662.28;7396343;19;20087;-67
2023/05/30 01:28:09;;;;;;;5.90;2.50;;;;;;;11.56;51.60;101662.25;7397396;19;20074;-68
2023/05/30 01:30:41;;;;;;;7.72;2.53;;;;;;;11.55;51.46;101663.16;7395774;19;20011;-67
2023/05/30 01:33:11;;;;;;;9.27;2.35;;;;;;;11.49;51.63;101664.09;7395928;19;20018;-69
2023/05/30 01:35:39;;;;;;;3.47;2.05;;;;;;;11.48;51.79;101667.59;7397346;19;20017;-69
2023/05/30 01:38:08;;;;;;;5.63;2.22;;;;;;;11.45;51.88;101666.75;7395491;19;20018;-67
2023/05/30 01:40:38;;;;;;;5.30;2.10;;;;;;;11.40;52.12;101662.44;7397335;19;20070;-69
2023/05/30 01:43:17;;;;;;;6.35;2.47;;;;;;;11.35;52.33;101666.88;7396337;19;20082;-68
2023/05/30 01:45:57;;;;;;;6.70;2.47;;;;;;;11.31;52.34;101669.53;7397613;19;20014;-69
2023/05/30 01:48:34;;;;;;;6.70;2.50;;;;;;;11.27;52.52;101662.56;7397823;19;20074;-69
2023/05/30 01:51:06;;;;;;;7.40;2.65;;;;;;;11.21;52.67;101664.38;7401259;19;20026;-68
2023/05/30 01:53:42;;;;;;;3.85;2.35;;;;;;;11.15;52.86;101661.81;7397705;19;20021;-68
2023/05/30 01:56:14;;;;;;;6.75;2.00;;;;;;;11.13;52.96;101666.19;7394806;19;20031;-67
2023/05/30 01:58:47;;;;;;;6.97;3.20;;;;;;;11.08;52.91;101662.75;7395329;19;20029;-67
2023/05/30 02:01:17;;;;;;;5.93;3.00;;;;;;;11.04;53.03;101675.03;7397096;19;20014;-68
2023/05/30 02:03:47;;;;;;;4.80;2.75;;;;;;;11.01;53.22;101668.97;7395929;19;20074;-68
2023/05/30 02:06:15;;;;;;;6.32;2.60;;;;;;;10.96;53.52;101676.00;7396227;19;20485;-68
2023/05/30 02:08:44;;;;;;;6.60;2.40;;;;;;;10.90;53.61;101674.28;7394768;19;20090;-69
2023/05/30 02:11:12;;;;;;;6.65;2.67;;;;;;;10.85;53.84;101671.69;7396323;19;20022;-70
2023/05/30 02:13:41;;;;;;;9.57;3.80;;;;;;;10.79;53.99;101669.09;7395359;19;20090;-68
2023/05/30 02:16:12;;;;;;;8.52;3.65;;;;;;;10.72;54.13;101680.56;7395642;19;20086;-68
2023/05/30 02:18:41;;;;;;;9.13;2.95;;;;;;;10.66;54.33;101684.09;7395616;19;20082;-68
2023/05/30 02:21:10;;;;;;;7.47;2.60;;;;;;;10.60;54.61;101681.50;7395933;19;20033;-68
2023/05/30 02:23:39;;;;;;;7.72;3.00;;;;;;;10.54;54.68;101684.16;7395320;19;20015;-67
2023/05/30 02:26:08;;;;;;;4.75;2.83;;;;;;;10.42;54.91;101677.25;7395619;19;20078;-67
2023/05/30 02:28:36;;;;;;;6.57;2.72;;;;;;;10.38;55.16;101683.41;7394208;19;20022;-67
2023/05/30 02:31:05;;;;;;;7.30;2.60;;;;;;;10.29;55.26;101673.81;7393959;19;20580;-68
2023/05/30 02:33:36;;;;;;;7.57;3.63;;;;;;;10.25;55.54;101672.94;7393317;19;20350;-68
2023/05/30 02:36:05;;;;;;;9.38;3.20;;;;;;;10.19;55.52;101672.97;7395763;19;20101;-68
2023/05/30 02:38:34;;;;;;;6.65;2.63;;;;;;;10.11;55.83;101677.41;7394267;19;20007;-68
2023/05/30 02:41:02;;;;;;;6.80;2.72;;;;;;;10.04;56.08;101675.69;7395098;19;20081;-69
2023/05/30 02:43:31;;;;;;;8.35;3.28;;;;;;;9.97;56.14;101674.84;7394424;19;20036;-68
2023/05/30 02:46:00;;;;;;;11.18;2.92;;;;;;;9.90;56.20;101679.22;7393546;19;20018;-67
2023/05/30 02:48:29;;;;;;;4.97;2.22;;;;;;;9.84;56.49;101681.84;7395349;19;20061;-67
2023/05/30 02:51:00;;;;;;;7.15;2.92;;;;;;;9.77;56.74;101681.00;7395102;19;20085;-68
2023/05/30 02:53:28;;;;;;;7.65;2.55;;;;;;;9.73;56.78;101686.25;7394654;19;20078;-68
2023/05/30 02:55:58;;;;;;;6.57;2.33;;;;;;;9.67;56.86;101688.91;7394664;19;20427;-68
2023/05/30 02:58:32;;;;;;;6.88;2.83;;;;;;;9.62;57.11;101692.41;7392704;19;20081;-68
2023/05/30 03:01:01;;;;;;;6.03;2.65;;;;;;;9.57;57.10;101696.78;7394852;19;20022;-68
2023/05/30 03:03:31;;;;;;;7.50;3.58;;;;;;;9.54;57.45;101695.94;7394037;19;20095;-68
2023/05/30 03:06:02;;;;;;;8.15;2.67;;;;;;;9.49;57.47;101697.69;7394620;19;20018;-68
2023/05/30 03:08:31;;;;;;;6.15;2.95;;;;;;;9.44;57.64;101702.94;7395193;19;20085;-68
2023/05/30 03:10:59;;;;;;;5.43;2.60;;;;;;;9.40;57.82;101698.56;7394416;19;20086;-68
2023/05/30 03:13:27;;;;;;;6.20;2.90;;;;;;;9.36;57.87;101710.78;7392348;19;20086;-68
2023/05/30 03:16:03;;;;;;;9.63;3.50;;;;;;;9.29;58.09;101699.47;7393970;19;20027;-67
2023/05/30 03:18:32;;;;;;;8.38;2.72;;;;;;;9.30;58.35;101702.94;7393546;19;20387;-68
2023/05/30 03:21:03;;;;;;;6.88;3.03;;;;;;;9.28;58.30;101707.31;7394615;19;20015;-68
2023/05/30 03:23:31;;;;;;;8.02;2.67;;;;;;;9.24;58.37;101703.84;7393451;19;20022;-67
2023/05/30 03:26:00;;;;;;;6.32;2.60;;;;;;;9.22;58.52;101704.72;7393675;19;20031;-68
2023/05/30 03:28:28;;;;;;;10.70;3.13;;;;;;;9.21;58.48;101710.81;7394153;19;20029;-68
2023/05/30 03:30:57;;;;;;;6.53;3.00;;;;;;;9.19;58.81;101715.19;7392731;19;20027;-68
2023/05/30 03:33:28;;;;;;;8.15;2.90;;;;;;;9.17;58.89;101716.94;7392597;19;20489;-68
2023/05/30 03:35:56;;;;;;;9.40;2.90;;;;;;;9.12;58.88;101715.19;7391433;19;20019;-70
2023/05/30 03:38:27;;;;;;;8.00;2.90;;;;;;;9.12;58.92;101714.31;7392951;19;20548;-68
2023/05/30 03:40:56;;;;;;;9.07;3.58;;;;;;;9.10;58.96;101719.56;7391871;19;20078;-68
2023/05/30 03:43:24;;;;;;;13.50;3.63;;;;;;;9.10;58.98;101724.78;7390882;19;20022;-68
2023/05/30 03:45:52;;;;;;;8.95;3.17;;;;;;;9.08;59.19;101721.28;7400294;19;20027;-68
2023/05/30 03:48:21;;;;;;;7.25;2.72;;;;;;;9.07;59.08;101714.31;7401027;19;20032;-68
2023/05/30 03:50:49;;;;;;;7.00;3.05;;;;;;;9.07;59.42;101721.28;7401249;19;20022;-67
2023/05/30 03:53:18;;;;;;;11.35;2.92;;;;;;;9.06;59.41;101727.38;7398975;19;20106;-67
2023/05/30 03:55:49;;;;;;;8.80;3.00;;;;;;;9.04;59.72;101726.53;7400771;19;20066;-68
2023/05/30 03:58:18;;;;;;;4.97;2.25;;;;;;;9.02;59.77;101723.03;7398450;19;20014;-67
2023/05/30 04:00:46;;;;;;;12.48;3.28;;;;;;;9.00;59.67;101732.63;7399911;19;20498;-67
2023/05/30 04:03:19;;;;;;;7.25;2.97;;;;;;;8.99;59.63;101730.91;7399128;19;20026;-68
2023/05/30 04:05:47;;;;;;;9.48;4.22;;;;;;;9.01;59.59;101727.41;7400036;19;20015;-67
2023/05/30 04:08:16;;;;;;;9.75;2.97;;;;;;;9.03;59.47;101717.78;7397138;19;20018;-68
2023/05/30 04:10:45;;;;;;;9.27;2.78;;;;;;;9.05;59.50;101729.16;7396961;19;20010;-68
2023/05/30 04:13:16;;;;;;;6.28;3.03;;;;;;;9.07;60.39;101729.16;7398863;19;20082;-67
2023/05/30 04:15:44;;;;;;;5.07;2.70;;;;;;;9.09;59.70;101741.34;7400557;19;20106;-68
2023/05/30 04:18:13;;;;;;;6.85;2.10;;;;;;;9.08;59.45;101739.59;7397380;19;20019;-68
2023/05/30 04:20:41;;;;;;;5.90;2.20;;;;;;;9.11;59.51;101749.22;7399549;19;20074;-67
2023/05/30 04:23:10;;;;;;;7.60;2.40;;;;;;;9.10;59.35;101753.59;7398670;19;20042;-67
2023/05/30 04:25:38;;;;;;;7.95;3.17;;;;;;;9.11;59.41;101741.34;7399464;19;20036;-67
2023/05/30 04:28:07;;;;;;;5.82;2.50;;;;;;;9.14;59.50;101757.06;7399292;19;20085;-67
2023/05/30 04:30:40;;;;;;;5.78;2.40;;;;;;;9.16;59.42;101751.84;7398814;19;20011;-68
2023/05/30 04:33:09;;;;;;;8.75;2.80;;;;;;;9.20;59.65;101748.34;7398451;19;20022;-68
2023/05/30 04:35:39;;;;;;;4.93;2.25;;;;;;;9.23;59.54;101743.97;7396846;19;20019;-68
2023/05/30 04:38:07;;;;;;;3.58;2.33;;;;;;;9.27;59.24;101745.72;7398584;19;20029;-67
2023/05/30 04:40:36;;;;;;;8.57;2.63;;;;;;;9.31;59.29;101740.50;7396067;19;20509;-68
2023/05/30 04:43:04;;;;;;;8.25;2.65;;;;;;;9.34;59.19;101754.47;7398139;19;20019;-67
2023/05/30 04:45:36;;;;;;;6.03;2.78;;;;;;;9.38;59.15;101761.44;7398767;19;20023;-67
2023/05/30 04:48:09;;;;;;;8.05;2.88;;;;;;;9.42;59.86;101764.94;7399322;19;20010;-66
2023/05/30 04:50:38;;;;;;;5.50;2.47;;;;;;;9.41;59.32;101765.81;7399469;19;20091;-68
2023/05/30 04:53:07;;;;;;;5.63;2.70;;;;;;;9.42;59.36;101770.16;7398333;19;20026;-68
2023/05/30 04:55:35;;;;;;;6.57;2.80;;;;;;;9.45;59.51;101767.53;7397661;19;20509;-68
2023/05/30 04:58:04;;;;;;;6.78;3.47;;;;;;;9.47;59.54;101770.19;7398001;19;20358;-67
2023/05/30 05:00:35;;;;;;;4.72;2.95;;;;;;;9.48;59.65;101764.03;7395737;19;20504;-67
2023/05/30 05:03:03;;;;;;;7.07;3.13;;;;;;;9.52;59.56;101779.75;7394717;19;20057;-67
2023/05/30 05:05:35;;;;;;;8.38;3.20;;;;;;;9.56;59.90;101762.31;7396111;19;20130;-67
2023/05/30 05:08:03;;;;;;;6.82;2.95;;;;;;;9.63;59.72;101766.66;7396673;19;20414;-66
2023/05/30 05:10:31;;;;;;;4.50;2.70;;;;;;;9.67;59.84;101765.78;7396429;19;20485;-68
2023/05/30 05:13:00;;;;;;;5.95;3.50;;;;;;;9.79;59.48;101770.13;7395078;19;20190;-68
2023/05/30 05:15:28;;;;;;;13.35;3.95;;;;;;;9.86;59.70;101771.84;7394496;19;20085;-68
2023/05/30 05:17:57;;;;;;;6.38;3.03;;;;;;;9.93;59.63;101763.09;7394989;19;20019;-68
2023/05/30 05:20:26;;;;;;;10.85;3.45;;;;;;;10.01;59.64;101765.69;7394498;19;20082;-69
2023/05/30 05:22:59;;;;;;;6.55;2.65;;;;;;;10.09;59.49;101763.06;7396819;19;20424;-71
2023/05/30 05:25:28;;;;;;;6.28;2.70;;;;;;;10.16;59.49;101764.78;7395715;19;20014;-69
2023/05/30 05:27:56;;;;;;;9.43;3.03;;;;;;;10.24;59.39;101759.50;7395454;19;20481;-68
2023/05/30 05:30:25;;;;;;;10.55;3.20;;;;;;;10.33;59.17;101769.94;7394509;19;20078;-71
2023/05/30 05:33:07;;;;;;;7.00;3.30;;;;;;;10.42;59.36;101763.81;7394522;19;20022;-70
2023/05/30 05:35:37;;;;;;;5.25;2.08;;;;;;;10.51;59.15;101765.53;7397286;19;20018;-69
2023/05/30 05:38:08;;;;;;;9.30;3.00;;;;;;;10.58;59.15;101773.34;7394948;19;20040;-67
2023/05/30 05:40:36;;;;;;;6.53;2.92;;;;;;;10.68;58.91;101768.06;7395230;19;20094;-69
2023/05/30 05:43:05;;;;;;;5.55;2.40;;;;;;;10.76;58.80;101769.75;7394287;19;20087;-69
2023/05/30 05:45:34;;;;;;;7.63;2.75;;;;;;;10.87;58.76;101771.47;7394888;19;20015;-69
2023/05/30 05:48:02;;;;;;;5.60;2.97;;;;;;;10.96;58.47;101762.66;7395646;19;20509;-68
2023/05/30 05:50:31;;;;;;;8.82;3.25;;;;;;;11.06;58.47;101767.81;7395784;19;20086;-69
2023/05/30 05:52:59;;;;;;;6.28;2.75;;;;;;;11.15;58.36;101773.88;7395844;19;20094;-69
2023/05/30 05:55:30;;;;;;;7.82;3.35;;;;;;;11.24;58.30;101773.81;7395394;19;20430;-69
2023/05/30 05:57:58;;;;;;;5.97;2.03;;;;;;;11.33;58.08;101771.09;7394976;19;20505;-69
2023/05/30 06:00:27;;;;;;;5.65;2.20;;;;;;;11.43;57.91;101765.78;7394328;19;20090;-71
2023/05/30 14:40:52;;;;;;;5.60;2.15;;;;;;;28.34;20.25;101676.84;7427834;19;20738;-68
2023/05/30 14:43:20;;;;;;;7.32;1.85;;;;;;;28.34;20.45;101676.00;7426267;19;20085;-71
2023/05/30 14:45:49;;;;;;;6.10;2.45;;;;;;;28.39;21.26;101680.03;7426733;19;20019;-72
2023/05/30 14:48:17;;;;;;;10.27;2.53;;;;;;;28.56;21.01;101677.75;7426377;19;20392;-68
2023/05/30 14:50:46;;;;;;;3.63;1.73;;;;;;;28.79;20.42;101686.66;7425757;19;20077;-66
2023/05/30 14:53:14;;;;;;;5.35;2.13;;;;;;;28.88;20.33;101683.16;7428996;19;20041;-71
2023/05/30 14:55:45;;;;;;;3.33;1.63;;;;;;;28.72;19.76;101686.31;7428880;19;20371;-68
2023/05/30 14:58:14;;;;;;;6.25;1.88;;;;;;;28.48;20.86;101685.66;7427331;19;20018;-68
2023/05/30 15:00:43;;;;;;;3.28;1.95;;;;;;;28.51;20.55;101680.88;7426473;19;20014;-69
2023/05/30 15:03:11;;;;;;;3.60;1.48;;;;;;;28.68;20.41;101684.00;7426175;19;20018;-68
2023/05/30 15:05:42;;;;;;;5.07;1.23;;;;;;;28.79;20.52;101686.66;7428511;19;20017;-69
2023/05/30 15:08:10;;;;;;;4.32;1.88;;;;;;;28.80;20.06;101674.84;7429201;19;20025;-66
2023/05/30 15:10:39;;;;;;;2.92;1.40;;;;;;;28.81;19.91;101678.44;7427118;19;20070;-66
2023/05/30 15:13:10;;;;;;;6.55;1.85;;;;;;;28.84;20.32;101673.63;7428596;19;20346;-66
2023/05/30 15:15:39;;;;;;;7.50;1.80;;;;;;;28.96;20.19;101677.09;7427129;19;20018;-65
2023/05/30 15:18:07;;;;;;;5.95;1.85;;;;;;;29.05;20.09;101668.25;7427631;19;20018;-67
2023/05/30 15:20:36;;;;;;;3.10;1.88;;;;;;;29.11;20.22;101666.84;7427273;19;20026;-64
2023/05/30 15:23:05;;;;;;;5.78;1.85;;;;;;;29.21;20.27;101666.91;7426466;19;20093;-65
2023/05/30 15:25:33;;;;;;;4.18;1.73;;;;;;;29.32;20.23;101666.84;7426999;19;20021;-65
2023/05/30 15:28:02;;;;;;;5.07;1.55;;;;;;;29.36;19.92;101671.00;7426606;19;20014;-66
2023/05/30 15:30:33;;;;;;;4.22;1.58;;;;;;;29.39;19.80;101672.56;7426610;19;20106;-64
2023/05/30 15:33:01;;;;;;;4.55;1.67;;;;;;;29.42;20.08;101675.00;7428465;19;20434;-65
2023/05/30 15:35:30;;;;;;;3.83;1.40;;;;;;;29.39;20.14;101676.13;7428284;19;20010;-65
2023/05/30 15:37:58;;;;;;;9.32;1.90;;;;;;;29.25;20.43;101676.44;7425292;19;20041;-64
2023/05/30 15:40:33;;;;;;;4.47;2.03;;;;;;;28.95;20.19;101674.56;7405100;19;20010;-63
2023/05/30 15:43:02;;;;;;;4.07;1.67;;;;;;;28.69;20.76;101675.78;7397416;19;20078;-65
2023/05/30 15:45:33;;;;;;;6.78;2.17;;;;;;;28.44;20.74;101682.34;7398829;19;20559;-65
2023/05/30 15:48:02;;;;;;;3.70;1.65;;;;;;;28.33;20.94;101677.00;7399115;19;20487;-68
2023/05/30 15:50:30;;;;;;;3.83;1.50;;;;;;;28.38;21.25;101669.38;7396247;19;20014;-66
2023/05/30 15:52:59;;;;;;;4.53;1.60;;;;;;;28.43;21.01;101672.53;7398915;19;20025;-65
2023/05/30 15:55:27;;;;;;;4.07;2.10;;;;;;;28.58;21.05;101673.09;7398793;19;20021;-65
2023/05/30 15:57:55;;;;;;;3.47;1.40;;;;;;;28.77;20.94;101677.81;7399129;19;20083;-66
2023/05/30 16:00:24;;;;;;;6.20;1.70;;;;;;;28.86;20.78;101670.78;7396863;19;20018;-65
2023/05/30 16:02:55;;;;;;;5.20;1.70;;;;;;;28.84;20.60;101681.72;7397367;19;20023;-64
2023/05/30 16:05:23;;;;;;;3.55;1.63;;;;;;;28.86;20.65;101670.78;7398669;19;20014;-64
2023/05/30 16:07:52;;;;;;;3.72;1.48;;;;;;;28.96;20.75;101666.31;7398328;19;20349;-65
2023/05/30 16:10:20;;;;;;;3.35;1.50;;;;;;;29.14;20.48;101665.72;7396545;19;20026;-65
2023/05/30 16:12:49;;;;;;;3.67;1.30;;;;;;;29.11;20.35;101674.94;7396232;19;20019;-66
2023/05/30 16:15:18;;;;;;;3.53;1.52;;;;;;;28.93;20.43;101674.69;7396055;19;20017;-65
2023/05/30 16:17:46;;;;;;;4.43;1.38;;;;;;;28.92;20.16;101672.97;7398405;19;20436;-64
2023/05/30 16:20:18;;;;;;;3.45;1.50;;;;;;;28.88;20.55;101669.66;7396039;19;20073;-65
2023/05/30 16:22:46;;;;;;;2.00;1.10;;;;;;;28.85;20.83;101679.88;7396123;19;20014;-65
2023/05/30 16:25:15;;;;;;;5.78;1.80;;;;;;;28.88;20.64;101677.78;7395021;19;20553;-64
2023/05/30 16:27:43;;;;;;;1.95;1.00;;;;;;;28.96;20.44;101676.28;7398582;19;20019;-65
2023/05/30 16:30:12;;;;;;;3.60;1.40;;;;;;;29.05;20.50;101670.06;7396518;19;20029;-64
2023/05/30 16:32:41;;;;;;;5.05;1.75;;;;;;;29.21;20.42;101672.31;7397912;19;20078;-65
2023/05/30 16:35:10;;;;;;;4.47;1.48;;;;;;;29.42;20.17;101669.59;7397280;19;20531;-64
2023/05/30 16:37:41;;;;;;;3.72;1.60;;;;;;;29.62;20.02;101664.28;7397673;19;20018;-65
2023/05/30 16:40:10;;;;;;;4.82;1.60;;;;;;;29.74;19.63;101668.59;7394475;19;20014;-65
2023/05/30 16:42:39;;;;;;;3.15;1.45;;;;;;;29.83;19.33;101677.75;7397726;19;20079;-66
2023/05/30 16:45:08;;;;;;;3.78;1.98;;;;;;;29.88;18.53;101670.06;7395535;19;20094;-64
2023/05/30 16:47:37;;;;;;;6.00;2.35;;;;;;;29.85;18.85;101676.59;7397698;19;20035;-64
2023/05/30 16:50:06;;;;;;;5.45;2.42;;;;;;;29.92;18.58;101670.69;7394682;19;20019;-65
2023/05/30 16:52:34;;;;;;;3.80;1.70;;;;;;;29.97;18.67;101677.38;7392843;19;20037;-65
2023/05/30 16:55:07;;;;;;;3.13;1.65;;;;;;;30.02;18.28;101679.69;7397096;19;20027;-64
2023/05/30 16:57:36;;;;;;;6.45;1.85;;;;;;;30.10;18.28;101678.97;7396012;19;20018;-65
2023/05/30 17:00:04;;;;;;;3.88;2.00;;;;;;;30.21;18.27;101677.00;7395123;19;20015;-65
2023/05/30 17:02:33;;;;;;;4.50;1.90;;;;;;;30.27;18.08;101678.31;7397581;19;20083;-64
2023/05/30 17:05:01;;;;;;;7.85;1.80;;;;;;;30.30;18.08;101669.88;7397060;19;20077;-63
2023/05/30 17:07:30;;;;;;;2.97;1.58;;;;;;;30.22;17.92;101677.88;7394726;19;20025;-63
2023/05/30 17:09:58;;;;;;;3.60;1.77;;;;;;;30.16;17.43;101683.84;7394437;19;20480;-64
2023/05/30 17:12:29;;;;;;;5.00;1.70;;;;;;;30.15;17.89;101679.41;7396445;19;20014;-65
2023/05/30 17:14:58;;;;;;;6.30;2.08;;;;;;;30.16;18.00;101686.53;7396942;19;20078;-67
2023/05/30 17:17:26;;;;;;;4.55;1.77;;;;;;;30.16;17.80;101686.53;7396311;19;20506;-67
2023/05/30 17:19:55;;;;;;;5.72;1.55;;;;;;;30.15;17.50;101695.66;7394844;19;20369;-63
2023/05/30 17:22:23;;;;;;;2.92;1.70;;;;;;;30.06;17.69;101695.50;7396813;19;20025;-67
2023/05/30 17:24:52;;;;;;;4.55;2.03;;;;;;;29.98;17.53;101699.88;7396195;19;20030;-67
2023/05/30 17:27:20;;;;;;;2.35;1.55;;;;;;;29.87;17.64;101693.53;7396447;19;20085;-65
2023/05/30 17:29:52;;;;;;;3.33;1.58;;;;;;;29.76;17.79;101693.63;7395058;19;20090;-65
2023/05/30 17:32:21;;;;;;;4.80;1.70;;;;;;;29.64;17.59;101698.31;7394760;19;20085;-65
2023/05/30 17:34:49;;;;;;;4.15;2.40;;;;;;;29.54;17.62;101702.81;7395704;19;20414;-66
2023/05/30 17:37:17;;;;;;;5.55;2.67;;;;;;;29.47;17.65;101701.63;7395836;19;20364;-66
2023/05/30 17:39:46;;;;;;;4.63;1.67;;;;;;;29.43;17.92;101701.03;7393772;19;20006;-66
2023/05/30 17:42:14;;;;;;;3.80;1.95;;;;;;;29.38;17.69;101701.47;7395710;19;20028;-66
2023/05/30 17:44:43;;;;;;;4.63;2.03;;;;;;;29.32;17.88;101702.00;7394070;19;20018;-70
2023/05/30 17:47:14;;;;;;;6.68;2.17;;;;;;;29.21;17.59;101707.44;7395817;19;20078;-66
2023/05/30 17:49:43;;;;;;;4.15;1.98;;;;;;;29.04;17.89;101716.97;7393871;19;20023;-65
2023/05/30 17:52:12;;;;;;;2.88;1.83;;;;;;;28.89;18.07;101711.03;7395422;19;20014;-66
2023/05/30 17:54:41;;;;;;;3.08;1.63;;;;;;;28.76;18.47;101713.91;7393587;19;20078;-66
2023/05/30 17:57:09;;;;;;;5.03;2.00;;;;;;;28.69;18.05;101713.56;7393695;19;20018;-66
2023/05/30 17:59:38;;;;;;;4.93;1.92;;;;;;;28.65;17.74;101720.19;7395330;19;20014;-66
2023/05/30 18:02:08;;;;;;;3.38;1.70;;;;;;;28.58;17.90;101721.69;7393572;19;20514;-66
2023/05/30 18:04:39;;;;;;;4.00;1.50;;;;;;;28.48;17.93;101723.44;7392906;19;20030;-66
2023/05/30 18:07:07;;;;;;;4.05;1.77;;;;;;;28.38;18.00;101723.34;7395623;19;20023;-66
2023/05/30 18:09:36;;;;;;;4.72;2.00;;;;;;;28.24;18.18;101724.47;7393318;19;20018;-65
2023/05/30 18:12:06;;;;;;;3.88;1.73;;;;;;;28.10;18.31;101728.28;7393716;19;20019;-65
2023/05/30 18:14:35;;;;;;;2.45;1.55;;;;;;;27.99;17.85;101721.03;7395211;19;20021;-66
2023/05/30 18:17:03;;;;;;;2.92;1.55;;;;;;;27.90;18.18;101716.38;7393000;19;20544;-66
2023/05/30 18:19:32;;;;;;;4.03;1.60;;;;;;;27.80;17.77;101713.56;7393969;19;20018;-66
2023/05/30 18:22:04;;;;;;;5.60;2.13;;;;;;;27.70;17.95;101724.25;7394726;19;20017;-65
2023/05/30 18:24:33;;;;;;;2.70;1.92;;;;;;;27.57;18.25;101720.78;7394946;19;20015;-66
2023/05/30 18:27:02;;;;;;;5.05;1.58;;;;;;;27.42;18.06;101720.16;7394627;19;20025;-66
2023/05/30 18:29:34;;;;;;;4.18;1.83;;;;;;;27.25;17.95;101726.84;7393105;19;20022;-66
2023/05/30 18:32:03;;;;;;;4.22;2.15;;;;;;;27.04;18.45;101726.63;7393725;19;20018;-66
2023/05/30 18:34:32;;;;;;;4.38;1.80;;;;;;;26.78;18.73;101721.38;7394427;19;20014;-66
2023/05/30 18:37:03;;;;;;;6.78;2.28;;;;;;;26.52;18.99;101726.03;7394796;19;20040;-66
2023/05/30 18:39:31;;;;;;;2.95;2.00;;;;;;;26.24;19.21;101722.66;7393850;19;20014;-66
2023/05/30 18:42:00;;;;;;;4.10;1.98;;;;;;;25.94;19.28;101727.41;7394940;19;20078;-66
2023/05/30 18:44:29;;;;;;;5.15;1.70;;;;;;;25.69;20.15;101730.97;7394682;19;20075;-66
2023/05/30 18:46:57;;;;;;;4.70;1.98;;;;;;;25.44;19.88;101735.41;7394536;19;20030;-64
2023/05/30 18:49:25;;;;;;;5.07;1.88;;;;;;;25.23;20.90;101734.16;7392348;19;20022;-65
2023/05/30 18:51:54;;;;;;;3.40;2.13;;;;;;;25.00;20.86;101740.13;7392453;19;20019;-65
2023/05/30 18:54:25;;;;;;;6.22;1.80;;;;;;;24.77;21.00;101747.03;7392207;19;20035;-65
2023/05/30 18:56:54;;;;;;;3.80;1.80;;;;;;;24.52;21.87;101743.25;7393564;19;20015;-65
2023/05/30 18:59:22;;;;;;;3.38;1.90;;;;;;;24.30;22.38;101748.28;7393075;19;20115;-65
2023/05/30 19:01:50;;;;;;;4.63;2.20;;;;;;;24.07;22.78;101742.56;7393562;19;20022;-65
2023/05/30 19:04:19;;;;;;;4.13;2.10;;;;;;;23.84;22.59;101744.81;7393662;19;20074;-65
2023/05/30 19:06:48;;;;;;;4.10;2.00;;;;;;;23.63;23.36;101752.34;7391233;19;20086;-65
2023/05/30 19:09:16;;;;;;;6.15;1.60;;;;;;;23.43;23.50;101753.59;7393858;19;20037;-65
2023/05/30 19:11:47;;;;;;;2.55;1.55;;;;;;;23.23;23.77;101761.00;7393161;19;20410;-65
2023/05/30 19:14:16;;;;;;;5.28;1.75;;;;;;;23.03;24.04;101759.44;7393886;19;20025;-65
2023/05/30 19:16:45;;;;;;;5.95;2.33;;;;;;;22.86;24.89;101759.56;7398669;19;20022;-65
2023/05/30 19:19:13;;;;;;;5.25;2.25;;;;;;;22.68;24.74;101766.84;7400946;19;20094;-65
2023/05/30 19:21:42;;;;;;;6.40;1.80;;;;;;;22.51;25.47;101763.31;7398621;19;20015;-65
2023/05/30 19:24:10;;;;;;;4.53;2.25;;;;;;;22.34;25.85;101763.34;7400431;19;20020;-65
2023/05/30 19:26:38;;;;;;;4.07;1.73;;;;;;;22.17;26.12;101765.16;7397800;19;20484;-64
2023/05/30 19:29:09;;;;;;;3.45;1.70;;;;;;;22.02;26.31;101765.97;7399715;19;20472;-64
2023/05/30 19:31:38;;;;;;;5.45;1.83;;;;;;;21.87;26.41;101768.50;7401416;19;20082;-65
2023/05/30 19:34:06;;;;;;;5.32;1.60;;;;;;;21.69;27.21;101769.50;7397682;19;20014;-65
2023/05/30 19:36:35;;;;;;;2.75;1.77;;;;;;;21.54;27.05;101768.47;7401254;19;20082;-65
2023/05/30 19:39:04;;;;;;;5.32;1.73;;;;;;;21.39;27.31;101772.78;7397781;19;20078;-66
2023/05/30 19:41:34;;;;;;;4.72;2.08;;;;;;;21.25;27.57;101778.81;7398557;19;20010;-65
2023/05/30 19:44:02;;;;;;;5.72;1.65;;;;;;;21.11;28.37;101780.38;7400553;19;20015;-64
2023/05/30 19:46:33;;;;;;;3.88;1.60;;;;;;;20.99;28.39;101783.63;7399953;19;20029;-65
2023/05/30 19:49:01;;;;;;;5.28;2.25;;;;;;;20.86;28.82;101780.72;7399853;19;20025;-67
2023/05/30 19:51:30;;;;;;;5.20;1.85;;;;;;;20.73;28.82;101779.59;7397281;19;20014;-65
2023/05/30 19:53:58;;;;;;;6.78;2.53;;;;;;;20.63;28.83;101792.47;7399321;19;20386;-65
2023/05/30 19:56:27;;;;;;;4.95;2.50;;;;;;;20.50;29.43;101789.53;7399690;19;20086;-65
2023/05/30 19:58:55;;;;;;;6.93;3.25;;;;;;;20.34;29.88;101795.53;7399044;19;20038;-65
2023/05/30 20:01:24;;;;;;;5.05;2.78;;;;;;;20.21;30.17;101799.72;7396641;19;20546;-65
2023/05/30 20:03:55;;;;;;;4.90;2.22;;;;;;;20.08;30.60;101794.09;7398845;19;20007;-65
2023/05/30 20:06:24;;;;;;;3.78;2.10;;;;;;;19.98;30.39;101800.75;7396500;19;20509;-63
2023/05/30 20:08:54;;;;;;;5.50;2.05;;;;;;;19.88;30.66;101800.31;7399339;19;20032;-65
2023/05/30 20:11:23;;;;;;;4.10;1.88;;;;;;;19.79;31.03;101798.00;7398143;19;20034;-65
2023/05/30 20:13:51;;;;;;;7.00;1.90;;;;;;;19.68;31.37;101798.50;7398288;19;20553;-65
2023/05/30 20:16:19;;;;;;;4.35;2.05;;;;;;;19.59;31.83;101804.19;7397381;19;20022;-65